Terminal Aerodrome Forecast
Issued by NWS Huntsville, AL

Home | Current Version | Previous Version | Text Only | Print | Product List | Glossary On
Versions: 1 2 3 4 5 6 7 8 9 10 11 12 13 14 15 16 17 18 19 20 21 22 23 24 25
000
FTUS44 KHUN 280520
TAFMSL
TAF
KMSL 280520Z 2806/0106 15009KT P6SM OVC010
     FM280900 17009KT 3SM BR OVC007
     FM281300 19014KT 5SM -SHRA BKN010 OVC100
      TEMPO 2813/2817 3SM -TSRA BKN010CB
     FM281900 19014KT P6SM OVC010=

USA.gov is the U.S. government's official web portal to all federal, state and local government web resources and services.